sensor_id;sensor_type;location;lat;lon;timestamp;P1;durP1;ratioP1;P2;durP2;ratioP2
52534;SDS011;38443;53.164;5.802;2022-10-16T15:21:25;7.63;;;2.40;;
52534;SDS011;38443;53.164;5.802;2022-10-16T15:23:53;6.32;;;2.55;;
52534;SDS011;38443;53.164;5.802;2022-10-16T15:26:19;10.13;;;2.35;;
52534;SDS011;38443;53.164;5.802;2022-10-16T15:28:44;10.20;;;2.33;;
52534;SDS011;38443;53.164;5.802;2022-10-16T15:31:09;8.32;;;2.25;;
52534;SDS011;38443;53.164;5.802;2022-10-16T15:33:35;7.60;;;2.47;;
52534;SDS011;38443;53.164;5.802;2022-10-16T15:36:00;10.15;;;2.83;;
52534;SDS011;38443;53.164;5.802;2022-10-16T15:38:28;7.30;;;2.30;;
52534;SDS011;38443;53.164;5.802;2022-10-16T15:40:54;11.68;;;2.70;;
52534;SDS011;38443;53.164;5.802;2022-10-16T15:43:19;8.18;;;2.65;;
52534;SDS011;38443;53.164;5.802;2022-10-16T15:46:06;13.75;;;3.05;;
52534;SDS011;38443;53.164;5.802;2022-10-16T15:48:35;9.88;;;2.55;;
52534;SDS011;38443;53.164;5.802;2022-10-16T15:51:00;15.07;;;3.72;;
52534;SDS011;38443;53.164;5.802;2022-10-16T15:53:33;11.38;;;3.50;;
52534;SDS011;38443;53.164;5.802;2022-10-16T15:56:05;7.35;;;3.20;;
52534;SDS011;38443;53.164;5.802;2022-10-16T15:58:32;20.42;;;4.63;;
52534;SDS011;38443;53.164;5.802;2022-10-16T16:00:58;9.40;;;2.78;;
52534;SDS011;38443;53.164;5.802;2022-10-16T16:03:26;10.88;;;3.10;;
52534;SDS011;38443;53.164;5.802;2022-10-16T16:05:52;8.20;;;2.97;;
52534;SDS011;38443;53.164;5.802;2022-10-16T16:08:18;11.65;;;3.00;;
52534;SDS011;38443;53.164;5.802;2022-10-16T16:10:43;19.45;;;2.95;;
52534;SDS011;38443;53.164;5.802;2022-10-16T16:13:09;9.70;;;2.45;;
52534;SDS011;38443;53.164;5.802;2022-10-16T16:15:37;12.85;;;3.85;;
52534;SDS011;38443;53.164;5.802;2022-10-16T16:18:04;8.48;;;2.60;;
52534;SDS011;38443;53.164;5.802;2022-10-16T16:20:30;14.30;;;3.00;;
52534;SDS011;38443;53.164;5.802;2022-10-16T16:22:56;8.13;;;3.35;;
52534;SDS011;38443;53.164;5.802;2022-10-16T16:25:21;10.05;;;4.18;;
52534;SDS011;38443;53.164;5.802;2022-10-16T16:27:47;14.60;;;3.40;;
52534;SDS011;38443;53.164;5.802;2022-10-16T16:30:12;14.35;;;3.95;;
52534;SDS011;38443;53.164;5.802;2022-10-16T16:32:37;8.27;;;3.53;;
52534;SDS011;38443;53.164;5.802;2022-10-16T16:35:03;14.30;;;3.83;;
52534;SDS011;38443;53.164;5.802;2022-10-16T16:37:29;10.80;;;3.40;;
52534;SDS011;38443;53.164;5.802;2022-10-16T16:39:55;8.82;;;3.30;;
52534;SDS011;38443;53.164;5.802;2022-10-16T16:42:23;5.72;;;3.25;;
52534;SDS011;38443;53.164;5.802;2022-10-16T16:44:49;13.02;;;3.58;;
52534;SDS011;38443;53.164;5.802;2022-10-16T16:47:14;14.90;;;3.65;;
52534;SDS011;38443;53.164;5.802;2022-10-16T16:49:40;12.82;;;4.85;;
52534;SDS011;38443;53.164;5.802;2022-10-16T16:52:05;14.75;;;4.07;;
52534;SDS011;38443;53.164;5.802;2022-10-16T16:54:30;14.38;;;3.85;;
52534;SDS011;38443;53.164;5.802;2022-10-16T16:56:56;13.75;;;4.32;;
52534;SDS011;38443;53.164;5.802;2022-10-16T16:59:21;12.73;;;3.67;;
52534;SDS011;38443;53.164;5.802;2022-10-16T17:01:47;20.55;;;6.88;;
52534;SDS011;38443;53.164;5.802;2022-10-16T17:04:13;15.55;;;6.00;;
52534;SDS011;38443;53.164;5.802;2022-10-16T17:06:40;15.40;;;5.25;;
52534;SDS011;38443;53.164;5.802;2022-10-16T17:09:06;14.68;;;5.43;;
52534;SDS011;38443;53.164;5.802;2022-10-16T17:11:32;11.80;;;4.45;;
52534;SDS011;38443;53.164;5.802;2022-10-16T17:13:58;17.65;;;4.00;;
52534;SDS011;38443;53.164;5.802;2022-10-16T17:16:25;8.63;;;3.40;;
52534;SDS011;38443;53.164;5.802;2022-10-16T17:18:58;8.48;;;2.95;;
52534;SDS011;38443;53.164;5.802;2022-10-16T17:21:25;9.68;;;3.92;;
52534;SDS011;38443;53.164;5.802;2022-10-16T17:23:52;8.88;;;3.63;;
52534;SDS011;38443;53.164;5.802;2022-10-16T17:26:17;10.60;;;3.40;;
52534;SDS011;38443;53.164;5.802;2022-10-16T17:28:43;8.13;;;3.20;;
52534;SDS011;38443;53.164;5.802;2022-10-16T17:31:12;13.10;;;3.60;;
52534;SDS011;38443;53.164;5.802;2022-10-16T17:33:40;11.23;;;3.95;;
52534;SDS011;38443;53.164;5.802;2022-10-16T17:36:06;14.07;;;5.03;;
52534;SDS011;38443;53.164;5.802;2022-10-16T17:38:32;14.68;;;7.10;;
52534;SDS011;38443;53.164;5.802;2022-10-16T17:40:58;10.48;;;3.92;;
52534;SDS011;38443;53.164;5.802;2022-10-16T17:43:24;10.00;;;3.55;;
52534;SDS011;38443;53.164;5.802;2022-10-16T17:45:49;12.65;;;3.83;;
52534;SDS011;38443;53.164;5.802;2022-10-16T17:48:14;11.23;;;3.50;;
52534;SDS011;38443;53.164;5.802;2022-10-16T17:50:40;13.40;;;4.15;;
52534;SDS011;38443;53.164;5.802;2022-10-16T17:53:06;16.20;;;4.55;;
52534;SDS011;38443;53.164;5.802;2022-10-16T17:55:36;12.63;;;3.80;;
52534;SDS011;38443;53.164;5.802;2022-10-16T17:58:03;10.52;;;4.55;;
52534;SDS011;38443;53.164;5.802;2022-10-16T18:00:28;10.18;;;3.65;;
52534;SDS011;38443;53.164;5.802;2022-10-16T18:02:54;10.70;;;3.55;;
52534;SDS011;38443;53.164;5.802;2022-10-16T18:05:19;8.80;;;3.40;;
52534;SDS011;38443;53.164;5.802;2022-10-16T18:07:44;9.23;;;4.00;;
52534;SDS011;38443;53.164;5.802;2022-10-16T18:10:10;9.48;;;3.38;;
52534;SDS011;38443;53.164;5.802;2022-10-16T18:12:35;8.50;;;3.63;;
52534;SDS011;38443;53.164;5.802;2022-10-16T18:15:01;9.25;;;4.10;;
52534;SDS011;38443;53.164;5.802;2022-10-16T18:17:26;10.57;;;4.43;;
52534;SDS011;38443;53.164;5.802;2022-10-16T18:19:52;6.90;;;3.53;;
52534;SDS011;38443;53.164;5.802;2022-10-16T18:24:43;9.40;;;3.70;;
52534;SDS011;38443;53.164;5.802;2022-10-16T18:27:08;16.00;;;3.78;;
52534;SDS011;38443;53.164;5.802;2022-10-16T18:29:34;12.35;;;4.20;;
52534;SDS011;38443;53.164;5.802;2022-10-16T18:34:25;11.05;;;3.90;;
52534;SDS011;38443;53.164;5.802;2022-10-16T18:36:51;8.77;;;3.35;;
52534;SDS011;38443;53.164;5.802;2022-10-16T18:39:19;14.68;;;5.43;;
52534;SDS011;38443;53.164;5.802;2022-10-16T18:41:47;10.93;;;3.53;;
52534;SDS011;38443;53.164;5.802;2022-10-16T18:44:13;12.68;;;5.43;;
52534;SDS011;38443;53.164;5.802;2022-10-16T18:49:04;8.38;;;3.55;;
52534;SDS011;38443;53.164;5.802;2022-10-16T18:53:57;8.85;;;3.78;;
52534;SDS011;38443;53.164;5.802;2022-10-16T18:56:24;8.75;;;3.17;;
52534;SDS011;38443;53.164;5.802;2022-10-16T18:58:51;9.05;;;3.55;;
52534;SDS011;38443;53.164;5.802;2022-10-16T19:01:23;10.88;;;3.53;;
52534;SDS011;38443;53.164;5.802;2022-10-16T19:03:57;12.45;;;3.40;;
52534;SDS011;38443;53.164;5.802;2022-10-16T19:06:24;12.75;;;4.95;;
52534;SDS011;38443;53.164;5.802;2022-10-16T19:08:51;8.43;;;3.13;;
52534;SDS011;38443;53.164;5.802;2022-10-16T19:11:18;12.00;;;5.40;;
52534;SDS011;38443;53.164;5.802;2022-10-16T19:13:45;8.73;;;3.55;;
52534;SDS011;38443;53.164;5.802;2022-10-16T19:16:13;8.85;;;3.13;;
52534;SDS011;38443;53.164;5.802;2022-10-16T19:18:40;8.32;;;2.95;;
52534;SDS011;38443;53.164;5.802;2022-10-16T19:23:32;5.88;;;2.95;;
52534;SDS011;38443;53.164;5.802;2022-10-16T19:26:02;6.78;;;2.88;;
52534;SDS011;38443;53.164;5.802;2022-10-16T19:28:28;10.15;;;3.22;;
52534;SDS011;38443;53.164;5.802;2022-10-16T19:33:19;10.38;;;2.97;;
52534;SDS011;38443;53.164;5.802;2022-10-16T19:35:45;7.35;;;2.90;;
52534;SDS011;38443;53.164;5.802;2022-10-16T19:38:11;8.93;;;2.97;;
52534;SDS011;38443;53.164;5.802;2022-10-16T19:43:01;11.60;;;3.90;;
52534;SDS011;38443;53.164;5.802;2022-10-16T19:47:52;9.93;;;3.27;;
52534;SDS011;38443;53.164;5.802;2022-10-16T19:52:43;13.23;;;3.78;;
52534;SDS011;38443;53.164;5.802;2022-10-16T19:55:09;13.07;;;3.90;;
52534;SDS011;38443;53.164;5.802;2022-10-16T20:00:02;7.93;;;3.22;;
52534;SDS011;38443;53.164;5.802;2022-10-16T20:02:29;13.77;;;4.15;;
52534;SDS011;38443;53.164;5.802;2022-10-16T20:07:19;10.57;;;3.42;;
52534;SDS011;38443;53.164;5.802;2022-10-16T20:09:46;12.70;;;4.10;;
52534;SDS011;38443;53.164;5.802;2022-10-16T20:14:37;14.20;;;3.97;;
52534;SDS011;38443;53.164;5.802;2022-10-16T20:17:02;14.60;;;4.78;;
52534;SDS011;38443;53.164;5.802;2022-10-16T20:19:28;14.65;;;3.95;;
52534;SDS011;38443;53.164;5.802;2022-10-16T20:21:53;8.20;;;4.00;;
52534;SDS011;38443;53.164;5.802;2022-10-16T20:24:19;12.63;;;4.82;;
52534;SDS011;38443;53.164;5.802;2022-10-16T20:29:09;15.70;;;4.05;;
52534;SDS011;38443;53.164;5.802;2022-10-16T20:34:02;9.35;;;3.60;;
52534;SDS011;38443;53.164;5.802;2022-10-16T20:36:29;11.38;;;4.72;;
52534;SDS011;38443;53.164;5.802;2022-10-16T20:38:55;13.73;;;5.57;;
52534;SDS011;38443;53.164;5.802;2022-10-16T20:43:47;8.60;;;4.07;;
52534;SDS011;38443;53.164;5.802;2022-10-16T20:46:15;10.43;;;4.10;;
52534;SDS011;38443;53.164;5.802;2022-10-16T20:48:43;12.52;;;4.10;;
52534;SDS011;38443;53.164;5.802;2022-10-16T20:51:14;12.75;;;5.57;;
52534;SDS011;38443;53.164;5.802;2022-10-16T20:54:01;9.63;;;3.38;;
52534;SDS011;38443;53.164;5.802;2022-10-16T20:56:30;17.30;;;3.90;;
52534;SDS011;38443;53.164;5.802;2022-10-16T20:58:57;10.98;;;4.50;;
52534;SDS011;38443;53.164;5.802;2022-10-16T21:03:57;11.50;;;4.45;;
52534;SDS011;38443;53.164;5.802;2022-10-16T21:06:24;14.52;;;5.20;;
52534;SDS011;38443;53.164;5.802;2022-10-16T21:08:50;13.35;;;4.38;;
52534;SDS011;38443;53.164;5.802;2022-10-16T21:13:43;13.90;;;5.22;;
52534;SDS011;38443;53.164;5.802;2022-10-16T21:16:09;15.10;;;5.10;;
52534;SDS011;38443;53.164;5.802;2022-10-16T21:18:36;13.60;;;5.85;;
52534;SDS011;38443;53.164;5.802;2022-10-16T21:23:27;15.63;;;6.22;;
52534;SDS011;38443;53.164;5.802;2022-10-16T21:28:18;10.80;;;5.70;;
52534;SDS011;38443;53.164;5.802;2022-10-16T21:33:09;11.90;;;6.23;;
52534;SDS011;38443;53.164;5.802;2022-10-16T21:37:59;26.33;;;5.77;;
52534;SDS011;38443;53.164;5.802;2022-10-16T21:42:53;14.18;;;5.40;;
52534;SDS011;38443;53.164;5.802;2022-10-16T21:47:45;16.50;;;6.00;;
52534;SDS011;38443;53.164;5.802;2022-10-16T21:50:11;13.85;;;5.68;;
52534;SDS011;38443;53.164;5.802;2022-10-16T21:55:02;11.98;;;5.22;;
52534;SDS011;38443;53.164;5.802;2022-10-16T21:59:53;13.20;;;6.00;;
52534;SDS011;38443;53.164;5.802;2022-10-16T22:04:43;13.43;;;5.03;;
52534;SDS011;38443;53.164;5.802;2022-10-16T22:09:34;15.80;;;7.03;;
52534;SDS011;38443;53.164;5.802;2022-10-16T22:14:24;21.75;;;5.50;;
52534;SDS011;38443;53.164;5.802;2022-10-16T22:19:16;14.48;;;5.55;;
52534;SDS011;38443;53.164;5.802;2022-10-16T22:21:44;13.65;;;5.40;;
52534;SDS011;38443;53.164;5.802;2022-10-16T22:24:11;14.88;;;5.38;;
52534;SDS011;38443;53.164;5.802;2022-10-16T22:26:37;23.75;;;5.13;;
52534;SDS011;38443;53.164;5.802;2022-10-16T22:31:29;34.20;;;5.97;;
52534;SDS011;38443;53.164;5.802;2022-10-16T22:36:21;11.35;;;4.68;;
52534;SDS011;38443;53.164;5.802;2022-10-16T22:41:12;20.48;;;6.05;;
52534;SDS011;38443;53.164;5.802;2022-10-16T22:43:39;15.93;;;6.20;;
52534;SDS011;38443;53.164;5.802;2022-10-16T22:46:07;13.68;;;4.80;;
52534;SDS011;38443;53.164;5.802;2022-10-16T22:48:35;13.80;;;5.55;;
52534;SDS011;38443;53.164;5.802;2022-10-16T22:53:26;10.88;;;5.25;;
52534;SDS011;38443;53.164;5.802;2022-10-16T22:55:52;12.90;;;5.53;;
52534;SDS011;38443;53.164;5.802;2022-10-16T23:00:43;12.82;;;5.85;;
52534;SDS011;38443;53.164;5.802;2022-10-16T23:03:08;10.70;;;4.80;;
52534;SDS011;38443;53.164;5.802;2022-10-16T23:08:02;13.07;;;5.03;;
52534;SDS011;38443;53.164;5.802;2022-10-16T23:10:28;16.52;;;6.35;;
52534;SDS011;38443;53.164;5.802;2022-10-16T23:15:19;14.27;;;5.00;;
52534;SDS011;38443;53.164;5.802;2022-10-16T23:17:45;10.43;;;5.55;;
52534;SDS011;38443;53.164;5.802;2022-10-16T23:20:10;12.93;;;6.43;;
52534;SDS011;38443;53.164;5.802;2022-10-16T23:25:01;9.30;;;4.80;;
52534;SDS011;38443;53.164;5.802;2022-10-16T23:29:51;8.65;;;5.72;;
52534;SDS011;38443;53.164;5.802;2022-10-16T23:32:17;13.50;;;4.80;;
52534;SDS011;38443;53.164;5.802;2022-10-16T23:37:07;9.47;;;4.60;;
52534;SDS011;38443;53.164;5.802;2022-10-16T23:41:58;14.73;;;7.43;;
52534;SDS011;38443;53.164;5.802;2022-10-16T23:46:48;11.77;;;5.70;;
52534;SDS011;38443;53.164;5.802;2022-10-16T23:51:39;9.45;;;4.82;;
52534;SDS011;38443;53.164;5.802;2022-10-16T23:54:04;11.38;;;5.38;;
52534;SDS011;38443;53.164;5.802;2022-10-16T23:58:55;11.00;;;4.33;;
